PWSweather.com
Personal Weather Stations
Station Observations
IMAZOWIE6
WarszawaPL

WarszawaPL

Lat: 52.27957, Lon: 21.05489

Elevation: 100

Station Type: WS1080

http://stacjapogody.waw.pl/

High Low Average
Temperature 79.9°F26.6°C 57.4°F14.1°C 69.3°F20.7°C
Dew Point 13.1°F-10.5°C -167.1°F-110.6°C -153.0°F-102.8°C
Winds 4.8 mph 7.7 kmh Calm Calm 1.0 mph N1.6 kmh N
Wind Gusts 8.8 mph14.2 kmh -- 3.0 mph4.8 kmh
Humidity 15% 11% 13%
Pressure 29.63 in1003.4 mb 29.24 in990.2 mb -
Precipitation 0.00 in0.0 mm - -
Hour Temp Dew Point Humidity Winds Wind Gusts Pressure Precip Precip Rate Daily Precip Total
12:04 AM 69.4°F20.8°C -165.9°F-109.9°C - 2.0 mph N3.2 kmh N 4.0 mph6.4 kmh 29.25 in990.5 mb 0.00 in0.0 mm 0.00 in0.0 mm 0.00 in0.0 mm
12:19 AM 69.3°F20.7°C -165.9°F-109.9°C - 2.8 mph N4.5 kmh N 5.4 mph8.7 kmh 29.24 in990.2 mb 0.00 in0.0 mm 0.00 in0.0 mm 0.00 in0.0 mm
12:34 AM 69.3°F20.7°C -165.9°F-109.9°C - 1.4 mph N2.3 kmh N 2.8 mph4.5 kmh 29.25 in990.5 mb 0.00 in0.0 mm 0.00 in0.0 mm 0.00 in0.0 mm
12:49 AM 69.1°F20.6°C -165.9°F-109.9°C - 0.6 mph N1.0 kmh N 2.0 mph3.2 kmh 29.25 in990.5 mb 0.00 in0.0 mm 0.00 in0.0 mm 0.00 in0.0 mm
01:04 AM 68.9°F20.5°C -165.9°F-109.9°C - Calm Calm 2.8 mph4.5 kmh 29.25 in990.5 mb 0.00 in0.0 mm 0.00 in0.0 mm 0.00 in0.0 mm
01:19 AM 68.9°F20.5°C -165.9°F-109.9°C - 2.0 mph N3.2 kmh N 4.8 mph7.7 kmh 29.26 in990.9 mb 0.00 in0.0 mm 0.00 in0.0 mm 0.00 in0.0 mm
01:34 AM 68.5°F20.3°C -165.9°F-109.9°C - Calm Calm 0.6 mph1.0 kmh 29.25 in990.5 mb 0.00 in0.0 mm 0.00 in0.0 mm 0.00 in0.0 mm
01:49 AM 68.5°F20.3°C -165.9°F-109.9°C - 1.4 mph N2.3 kmh N 3.4 mph5.5 kmh 29.25 in990.5 mb 0.00 in0.0 mm 0.00 in0.0 mm 0.00 in0.0 mm
02:04 AM 68.2°F20.1°C -166.0°F-110.0°C - 0.6 mph N1.0 kmh N 2.8 mph4.5 kmh 29.25 in990.5 mb 0.00 in0.0 mm 0.00 in0.0 mm 0.00 in0.0 mm
02:19 AM 68.2°F20.1°C -166.0°F-110.0°C - 0.6 mph N1.0 kmh N 2.0 mph3.2 kmh 29.25 in990.5 mb 0.00 in0.0 mm 0.00 in0.0 mm 0.00 in0.0 mm
02:35 AM 68.0°F20.0°C -166.0°F-110.0°C - 0.6 mph N1.0 kmh N 2.0 mph3.2 kmh 29.25 in990.5 mb 0.00 in0.0 mm 0.00 in0.0 mm 0.00 in0.0 mm
02:49 AM 68.2°F20.1°C -166.0°F-110.0°C - 2.0 mph N3.2 kmh N 4.8 mph7.7 kmh 29.26 in990.9 mb 0.00 in0.0 mm 0.00 in0.0 mm 0.00 in0.0 mm
03:04 AM 68.2°F20.1°C -166.0°F-110.0°C - 1.4 mph N2.3 kmh N 5.4 mph8.7 kmh 29.26 in990.9 mb 0.00 in0.0 mm 0.00 in0.0 mm 0.00 in0.0 mm
03:19 AM 68.2°F20.1°C -166.0°F-110.0°C - 1.4 mph N2.3 kmh N 4.0 mph6.4 kmh 29.26 in990.9 mb 0.00 in0.0 mm 0.00 in0.0 mm 0.00 in0.0 mm
03:34 AM 68.2°F20.1°C -166.0°F-110.0°C - 0.6 mph N1.0 kmh N 2.0 mph3.2 kmh 29.26 in990.9 mb 0.00 in0.0 mm 0.00 in0.0 mm 0.00 in0.0 mm
03:49 AM 68.2°F20.1°C -166.0°F-110.0°C - 1.4 mph N2.3 kmh N 3.4 mph5.5 kmh 29.27 in991.2 mb 0.00 in0.0 mm 0.00 in0.0 mm 0.00 in0.0 mm
04:04 AM 68.4°F20.2°C -166.0°F-110.0°C - 2.8 mph N4.5 kmh N 5.4 mph8.7 kmh 29.27 in991.2 mb 0.00 in0.0 mm 0.00 in0.0 mm 0.00 in0.0 mm
04:19 AM 67.8°F19.9°C -166.0°F-110.0°C - 1.4 mph N2.3 kmh N 5.4 mph8.7 kmh 29.28 in991.5 mb 0.00 in0.0 mm 0.00 in0.0 mm 0.00 in0.0 mm
04:34 AM 67.1°F19.5°C -166.1°F-110.1°C - 3.4 mph N5.5 kmh N 6.2 mph10.0 kmh 29.30 in992.2 mb 0.01 in0.3 mm 0.05 in1.3 mm 0.01 in0.3 mm
04:49 AM 64.6°F18.1°C -166.3°F-110.2°C - 3.4 mph N5.5 kmh N 5.4 mph8.7 kmh 29.31 in992.6 mb 0.01 in0.3 mm 0.00 in0.0 mm 0.01 in0.3 mm
05:04 AM 63.5°F17.5°C 8.1°F-13.3°C 11% 4.0 mph N6.4 kmh N 8.2 mph13.2 kmh 29.33 in993.2 mb 0.01 in0.3 mm 0.00 in0.0 mm 0.01 in0.3 mm
05:19 AM 63.1°F17.3°C 11.5°F-11.4°C 13% 2.0 mph N3.2 kmh N 4.8 mph7.7 kmh 29.34 in993.6 mb 0.00 in0.0 mm 0.00 in0.0 mm 0.01 in0.3 mm
05:34 AM 62.4°F16.9°C 12.5°F-10.8°C 14% 4.0 mph N6.4 kmh N 7.4 mph11.9 kmh 29.36 in994.2 mb 0.00 in0.0 mm 0.00 in0.0 mm 0.01 in0.3 mm
05:49 AM 61.2°F16.2°C 13.1°F-10.5°C 15% Calm Calm 2.8 mph4.5 kmh 29.37 in994.6 mb 0.00 in0.0 mm 0.00 in0.0 mm 0.01 in0.3 mm
06:04 AM 59.9°F15.5°C 10.5°F-11.9°C 14% 1.4 mph N2.3 kmh N 3.4 mph5.5 kmh 29.38 in994.9 mb 0.00 in0.0 mm 0.00 in0.0 mm 0.01 in0.3 mm
06:19 AM 60.1°F15.6°C 10.6°F-11.9°C 14% Calm Calm 2.8 mph4.5 kmh 29.39 in995.3 mb 0.00 in0.0 mm 0.00 in0.0 mm 0.01 in0.3 mm
06:34 AM 61.7°F16.5°C 6.6°F-14.1°C 11% Calm Calm 1.4 mph2.3 kmh 29.40 in995.6 mb 0.00 in0.0 mm 0.00 in0.0 mm 0.01 in0.3 mm
06:49 AM 63.5°F17.5°C -166.5°F-110.3°C - 2.0 mph N3.2 kmh N 4.0 mph6.4 kmh 29.40 in995.6 mb 0.00 in0.0 mm 0.00 in0.0 mm 0.01 in0.3 mm
07:04 AM 64.8°F18.2°C -166.3°F-110.2°C - 2.0 mph N3.2 kmh N 4.8 mph7.7 kmh 29.42 in996.3 mb 0.00 in0.0 mm 0.00 in0.0 mm 0.01 in0.3 mm
07:19 AM 67.6°F19.8°C -166.0°F-110.0°C - Calm Calm 2.0 mph3.2 kmh 29.42 in996.3 mb 0.00 in0.0 mm 0.00 in0.0 mm 0.01 in0.3 mm
07:34 AM 73.2°F22.9°C -165.5°F-109.7°C - 1.4 mph N2.3 kmh N 2.8 mph4.5 kmh 29.42 in996.3 mb 0.00 in0.0 mm 0.00 in0.0 mm 0.01 in0.3 mm
07:49 AM 77.5°F25.3°C -165.0°F-109.4°C - Calm Calm 2.0 mph3.2 kmh 29.44 in997.0 mb 0.00 in0.0 mm 0.00 in0.0 mm 0.01 in0.3 mm
08:04 AM 79.0°F26.1°C -164.9°F-109.4°C - 3.4 mph N5.5 kmh N 7.4 mph11.9 kmh 29.45 in997.3 mb 0.00 in0.0 mm 0.00 in0.0 mm 0.01 in0.3 mm
08:19 AM 79.9°F26.6°C -164.8°F-109.3°C - 2.8 mph N4.5 kmh N 6.2 mph10.0 kmh 29.45 in997.3 mb 0.00 in0.0 mm 0.00 in0.0 mm 0.01 in0.3 mm
08:34 AM 78.4°F25.8°C -165.0°F-109.4°C - 3.4 mph N5.5 kmh N 6.2 mph10.0 kmh 29.46 in997.6 mb 0.00 in0.0 mm 0.00 in0.0 mm 0.01 in0.3 mm
08:49 AM 77.2°F25.1°C -165.1°F-109.5°C - 2.8 mph N4.5 kmh N 6.2 mph10.0 kmh 29.47 in998.0 mb 0.00 in0.0 mm 0.00 in0.0 mm 0.01 in0.3 mm
09:04 AM 79.0°F26.1°C -164.9°F-109.4°C - 2.8 mph N4.5 kmh N 4.8 mph7.7 kmh 29.47 in998.0 mb 0.00 in0.0 mm 0.00 in0.0 mm 0.01 in0.3 mm
09:19 AM 78.8°F26.0°C -164.9°F-109.4°C - 2.0 mph N3.2 kmh N 4.0 mph6.4 kmh 29.47 in998.0 mb 0.00 in0.0 mm 0.00 in0.0 mm 0.01 in0.3 mm
09:34 AM 78.6°F25.9°C -164.9°F-109.4°C - 2.8 mph N4.5 kmh N 5.4 mph8.7 kmh 29.48 in998.3 mb 0.00 in0.0 mm 0.00 in0.0 mm 0.01 in0.3 mm
09:49 AM 78.4°F25.8°C -165.0°F-109.4°C - 1.4 mph N2.3 kmh N 2.8 mph4.5 kmh 29.48 in998.3 mb 0.00 in0.0 mm 0.00 in0.0 mm 0.01 in0.3 mm
10:04 AM 78.3°F25.7°C -165.0°F-109.4°C - 3.4 mph N5.5 kmh N 5.4 mph8.7 kmh 29.48 in998.3 mb 0.00 in0.0 mm 0.00 in0.0 mm 0.01 in0.3 mm
10:19 AM 73.8°F23.2°C -165.4°F-109.7°C - 2.8 mph N4.5 kmh N 6.2 mph10.0 kmh 29.49 in998.6 mb 0.00 in0.0 mm 0.00 in0.0 mm 0.01 in0.3 mm
10:34 AM 73.0°F22.8°C -165.5°F-109.7°C - 2.8 mph N4.5 kmh N 4.8 mph7.7 kmh 29.49 in998.6 mb 0.00 in0.0 mm 0.00 in0.0 mm 0.01 in0.3 mm
10:49 AM 71.2°F21.8°C -165.7°F-109.8°C - 2.0 mph N3.2 kmh N 4.0 mph6.4 kmh 29.50 in999.0 mb 0.00 in0.0 mm 0.00 in0.0 mm 0.01 in0.3 mm
11:04 AM 72.0°F22.2°C -165.6°F-109.8°C - 1.4 mph N2.3 kmh N 4.0 mph6.4 kmh 29.50 in999.0 mb 0.00 in0.0 mm 0.00 in0.0 mm 0.01 in0.3 mm
11:19 AM 74.5°F23.6°C -165.4°F-109.7°C - 3.4 mph N5.5 kmh N 8.8 mph14.2 kmh 29.51 in999.3 mb 0.00 in0.0 mm 0.00 in0.0 mm 0.01 in0.3 mm
11:34 AM 75.2°F24.0°C -165.3°F-109.6°C - 3.4 mph N5.5 kmh N 6.2 mph10.0 kmh 29.51 in999.3 mb 0.00 in0.0 mm 0.00 in0.0 mm 0.01 in0.3 mm
11:49 AM 75.2°F24.0°C -165.3°F-109.6°C - 3.4 mph N5.5 kmh N 7.4 mph11.9 kmh 29.50 in999.0 mb 0.00 in0.0 mm 0.00 in0.0 mm 0.01 in0.3 mm
12:04 PM 75.0°F23.9°C -165.3°F-109.6°C - 4.8 mph N7.7 kmh N 6.8 mph10.9 kmh 29.51 in999.3 mb 0.00 in0.0 mm 0.00 in0.0 mm 0.01 in0.3 mm
12:19 PM 75.2°F24.0°C -165.3°F-109.6°C - 4.8 mph N7.7 kmh N 8.8 mph14.2 kmh 29.51 in999.3 mb 0.00 in0.0 mm 0.00 in0.0 mm 0.01 in0.3 mm
12:34 PM 75.2°F24.0°C -165.3°F-109.6°C - 3.4 mph N5.5 kmh N 6.8 mph10.9 kmh 29.52 in999.7 mb 0.00 in0.0 mm 0.00 in0.0 mm 0.01 in0.3 mm
12:49 PM 74.1°F23.4°C -165.4°F-109.7°C - 2.8 mph N4.5 kmh N 5.4 mph8.7 kmh 29.52 in999.7 mb 0.00 in0.0 mm 0.00 in0.0 mm 0.01 in0.3 mm
01:04 PM 74.7°F23.7°C -165.3°F-109.6°C - Calm Calm 3.4 mph5.5 kmh 29.51 in999.3 mb 0.00 in0.0 mm 0.00 in0.0 mm 0.01 in0.3 mm
01:19 PM 75.0°F23.9°C -165.3°F-109.6°C - 1.4 mph N2.3 kmh N 3.4 mph5.5 kmh 29.52 in999.7 mb 0.00 in0.0 mm 0.00 in0.0 mm 0.01 in0.3 mm
01:34 PM 75.0°F23.9°C -165.3°F-109.6°C - 2.8 mph N4.5 kmh N 5.4 mph8.7 kmh 29.52 in999.7 mb 0.00 in0.0 mm 0.00 in0.0 mm 0.01 in0.3 mm
01:49 PM 75.4°F24.1°C -165.3°F-109.6°C - 2.0 mph N3.2 kmh N 4.8 mph7.7 kmh 29.52 in999.7 mb 0.00 in0.0 mm 0.00 in0.0 mm 0.01 in0.3 mm
02:04 PM 75.6°F24.2°C -165.2°F-109.6°C - 2.8 mph N4.5 kmh N 5.4 mph8.7 kmh 29.52 in999.7 mb 0.00 in0.0 mm 0.00 in0.0 mm 0.01 in0.3 mm
02:19 PM 73.9°F23.3°C -165.4°F-109.7°C - 2.0 mph N3.2 kmh N 4.0 mph6.4 kmh 29.52 in999.7 mb 0.00 in0.0 mm 0.00 in0.0 mm 0.01 in0.3 mm
02:34 PM 73.4°F23.0°C -165.5°F-109.7°C - Calm Calm 2.0 mph3.2 kmh 29.52 in999.7 mb 0.00 in0.0 mm 0.00 in0.0 mm 0.01 in0.3 mm
02:49 PM 73.2°F22.9°C -165.5°F-109.7°C - 2.0 mph N3.2 kmh N 4.8 mph7.7 kmh 29.52 in999.7 mb 0.00 in0.0 mm 0.00 in0.0 mm 0.01 in0.3 mm
03:04 PM 73.6°F23.1°C -165.4°F-109.7°C - 1.4 mph N2.3 kmh N 3.4 mph5.5 kmh 29.52 in999.7 mb 0.00 in0.0 mm 0.00 in0.0 mm 0.01 in0.3 mm
03:19 PM 73.9°F23.3°C -165.4°F-109.7°C - 2.0 mph N3.2 kmh N 5.4 mph8.7 kmh 29.52 in999.7 mb 0.00 in0.0 mm 0.00 in0.0 mm 0.01 in0.3 mm
03:34 PM 73.2°F22.9°C -165.5°F-109.7°C - Calm Calm 1.4 mph2.3 kmh 29.53 in1000.0 mb 0.00 in0.0 mm 0.00 in0.0 mm 0.01 in0.3 mm
03:49 PM 73.0°F22.8°C -165.5°F-109.7°C - Calm Calm -- 29.52 in999.7 mb 0.00 in0.0 mm 0.00 in0.0 mm 0.01 in0.3 mm
04:04 PM 72.3°F22.4°C -165.6°F-109.8°C - 1.4 mph N2.3 kmh N 4.0 mph6.4 kmh 29.53 in1000.0 mb 0.00 in0.0 mm 0.00 in0.0 mm 0.01 in0.3 mm
04:19 PM 73.0°F22.8°C -165.5°F-109.7°C - Calm Calm 1.4 mph2.3 kmh 29.52 in999.7 mb 0.00 in0.0 mm 0.00 in0.0 mm 0.01 in0.3 mm
04:34 PM 72.5°F22.5°C -165.6°F-109.8°C - 0.6 mph N1.0 kmh N 2.8 mph4.5 kmh 29.53 in1000.0 mb 0.00 in0.0 mm 0.00 in0.0 mm 0.01 in0.3 mm
04:49 PM 72.0°F22.2°C -165.6°F-109.8°C - 1.4 mph N2.3 kmh N 4.0 mph6.4 kmh 29.53 in1000.0 mb 0.00 in0.0 mm 0.00 in0.0 mm 0.01 in0.3 mm
05:04 PM 71.4°F21.9°C -165.7°F-109.8°C - 2.0 mph N3.2 kmh N 4.0 mph6.4 kmh 29.53 in1000.0 mb 0.00 in0.0 mm 0.00 in0.0 mm 0.01 in0.3 mm
05:19 PM 71.2°F21.8°C -165.7°F-109.8°C - 3.4 mph N5.5 kmh N 6.2 mph10.0 kmh 29.54 in1000.3 mb 0.00 in0.0 mm 0.00 in0.0 mm 0.01 in0.3 mm
05:34 PM 70.9°F21.6°C -165.7°F-109.8°C - 1.4 mph N2.3 kmh N 4.0 mph6.4 kmh 29.54 in1000.3 mb 0.00 in0.0 mm 0.00 in0.0 mm 0.01 in0.3 mm
05:49 PM 70.2°F21.2°C -165.8°F-109.9°C - Calm Calm 1.4 mph2.3 kmh 29.55 in1000.7 mb 0.00 in0.0 mm 0.00 in0.0 mm 0.01 in0.3 mm
06:04 PM 70.3°F21.3°C -165.8°F-109.9°C - 2.0 mph N3.2 kmh N 5.4 mph8.7 kmh 29.56 in1001.0 mb 0.00 in0.0 mm 0.00 in0.0 mm 0.01 in0.3 mm
06:19 PM 69.8°F21.0°C -165.8°F-109.9°C - Calm Calm 1.4 mph2.3 kmh 29.56 in1001.0 mb 0.00 in0.0 mm 0.00 in0.0 mm 0.01 in0.3 mm
06:34 PM 69.3°F20.7°C -165.9°F-109.9°C - 0.6 mph N1.0 kmh N 2.0 mph3.2 kmh 29.57 in1001.4 mb 0.00 in0.0 mm 0.00 in0.0 mm 0.01 in0.3 mm
06:49 PM 68.5°F20.3°C -165.9°F-109.9°C - 0.6 mph N1.0 kmh N 1.4 mph2.3 kmh 29.57 in1001.4 mb 0.00 in0.0 mm 0.00 in0.0 mm 0.01 in0.3 mm
07:04 PM 68.0°F20.0°C -166.0°F-110.0°C - 0.6 mph N1.0 kmh N 1.4 mph2.3 kmh 29.57 in1001.4 mb 0.00 in0.0 mm 0.00 in0.0 mm 0.01 in0.3 mm
07:19 PM 67.5°F19.7°C -166.1°F-110.1°C - 0.6 mph N1.0 kmh N 2.0 mph3.2 kmh 29.58 in1001.7 mb 0.00 in0.0 mm 0.00 in0.0 mm 0.01 in0.3 mm
07:34 PM 66.9°F19.4°C -166.1°F-110.1°C - 0.6 mph N1.0 kmh N 2.8 mph4.5 kmh 29.58 in1001.7 mb 0.00 in0.0 mm 0.00 in0.0 mm 0.01 in0.3 mm
07:49 PM 66.0°F18.9°C -166.2°F-110.1°C - Calm Calm 0.6 mph1.0 kmh 29.60 in1002.4 mb 0.00 in0.0 mm 0.00 in0.0 mm 0.01 in0.3 mm
08:04 PM 65.5°F18.6°C -166.3°F-110.2°C - Calm Calm 1.4 mph2.3 kmh 29.60 in1002.4 mb 0.00 in0.0 mm 0.00 in0.0 mm 0.01 in0.3 mm
08:19 PM 64.8°F18.2°C -166.3°F-110.2°C - Calm Calm -- 29.61 in1002.7 mb 0.00 in0.0 mm 0.00 in0.0 mm 0.01 in0.3 mm
08:34 PM 63.7°F17.6°C -166.4°F-110.2°C - Calm Calm -- 29.62 in1003.0 mb 0.00 in0.0 mm 0.00 in0.0 mm 0.01 in0.3 mm
08:49 PM 63.1°F17.3°C -166.5°F-110.3°C - Calm Calm -- 29.62 in1003.0 mb 0.00 in0.0 mm 0.00 in0.0 mm 0.01 in0.3 mm
09:04 PM 62.8°F17.1°C -166.5°F-110.3°C - Calm Calm -- 29.62 in1003.0 mb 0.00 in0.0 mm 0.00 in0.0 mm 0.01 in0.3 mm
09:19 PM 62.6°F17.0°C -166.5°F-110.3°C - Calm Calm -- 29.62 in1003.0 mb 0.00 in0.0 mm 0.00 in0.0 mm 0.01 in0.3 mm
09:34 PM 61.9°F16.6°C -166.6°F-110.3°C - Calm Calm -- 29.62 in1003.0 mb 0.00 in0.0 mm 0.00 in0.0 mm 0.01 in0.3 mm
09:49 PM 61.3°F16.3°C -166.7°F-110.4°C - Calm Calm -- 29.62 in1003.0 mb 0.00 in0.0 mm 0.00 in0.0 mm 0.01 in0.3 mm
10:04 PM 61.0°F16.1°C -166.7°F-110.4°C - Calm Calm -- 29.62 in1003.0 mb 0.00 in0.0 mm 0.00 in0.0 mm 0.01 in0.3 mm
10:19 PM 60.3°F15.7°C -166.8°F-110.4°C - Calm Calm -- 29.62 in1003.0 mb 0.00 in0.0 mm 0.00 in0.0 mm 0.01 in0.3 mm
10:34 PM 60.3°F15.7°C -166.8°F-110.4°C - Calm Calm -- 29.62 in1003.0 mb 0.00 in0.0 mm 0.00 in0.0 mm 0.01 in0.3 mm
10:49 PM 59.7°F15.4°C -166.8°F-110.4°C - Calm Calm -- 29.62 in1003.0 mb 0.00 in0.0 mm 0.00 in0.0 mm 0.01 in0.3 mm
11:04 PM 59.2°F15.1°C -166.9°F-110.5°C - Calm Calm -- 29.62 in1003.0 mb 0.00 in0.0 mm 0.00 in0.0 mm 0.01 in0.3 mm
11:19 PM 58.5°F14.7°C -167.0°F-110.6°C - Calm Calm -- 29.63 in1003.4 mb 0.00 in0.0 mm 0.00 in0.0 mm 0.01 in0.3 mm
11:34 PM 57.9°F14.4°C -167.0°F-110.6°C - Calm Calm -- 29.63 in1003.4 mb 0.00 in0.0 mm 0.00 in0.0 mm 0.01 in0.3 mm
11:49 PM 57.4°F14.1°C -167.1°F-110.6°C - Calm Calm -- 29.63 in1003.4 mb 0.00 in0.0 mm 0.00 in0.0 mm 0.01 in0.3 mm